weather.gov     
National Weather Service

Terminal Aerodrome Forecast
NWS Homepage
This page is being discontinued on March 12, 2014.
The same data is available at this site. Please update your bookmarks.
Thank you, and we apologize for the inconvenience.
Please send an email to SR-SRH.Webmaster@noaa.gov with any concerns.


Current Version
Previous Version:    01  02  03  04  05  06  07  08  09  10  11  12  13  14  15  16  17  18  19  20  21  22  23  24  25  26  27  28  29  30  
   31  32  33  34  35  36  37  38  39  40  41  42  43  44  45  46  47  48  49  50  51  52  53  
[Printable]
031
FTUS46 KMTR 180500
TAFSFO
TAF
KSFO 180534Z 1806/1912 14006KT 5SM -SHRA BR FEW009 BKN024 OVC029
     FM180800 13006KT P6SM VCSH BKN015 BKN040 OVC050
     FM181500 09004KT P6SM BKN015 BKN040 BKN050
     FM181900 10005KT P6SM BKN025 BKN050
     FM182300 18008KT P6SM BKN050 OVC100 PROB30 1906/1912 P6SM -RA
      OVC050=


U.S. Dept. of Commerce
NOAA National Weather Service
1325 East West Highway
Silver Spring, MD 20910
E-mail: w-nws.webmaster@noaa.gov
Page last modified: May 16, 2007
NATIONAL WEATHER SERVICE: for Safety, for Work, for Fun - FOR LIFE